Time;durP1;ratioP1;P1;durP2;ratioP2;P2;SDS_P1;SDS_P2;PMS_P1;PMS_P2;Temp;Humidity;BMP_temperature;BMP_pressure;BME280_temperature;BME280_humidity;BME280_pressure;Samples;Min_cycle;Max_cycle;Signal;HPM_P1;HPM_P2
2022/05/08 03:02:34;;;;;;;31.30;28.53;;;7.90;99.90;;;;;;4969392;23;20765;-77
2022/05/08 03:05:01;;;;;;;27.23;25.00;;;7.80;99.90;;;;;;4971794;28;20177;-77
2022/05/08 03:07:27;;;;;;;25.23;22.83;;;7.80;99.90;;;;;;4986807;28;20180;-77
2022/05/08 03:09:53;;;;;;;27.20;24.83;;;7.80;99.90;;;;;;4971046;28;20303;-77
2022/05/08 03:12:19;;;;;;;26.23;24.30;;;7.90;99.90;;;;;;4969563;28;20279;-77
2022/05/08 03:14:44;;;;;;;23.00;20.90;;;7.90;99.90;;;;;;4992387;23;20240;-77
2022/05/08 03:17:10;;;;;;;22.90;20.93;;;7.80;99.90;;;;;;4976000;28;20185;-79
2022/05/08 03:19:36;;;;;;;25.13;22.97;;;7.80;99.90;;;;;;4979711;28;20193;-78
2022/05/08 03:22:02;;;;;;;22.63;20.63;;;7.80;99.90;;;;;;4979626;28;20245;-77
2022/05/08 03:24:29;;;;;;;23.00;21.20;;;7.80;99.90;;;;;;4976213;28;20263;-78
2022/05/08 03:26:56;;;;;;;20.97;19.17;;;7.80;99.90;;;;;;4972292;28;20188;-78
2022/05/08 03:29:25;;;;;;;24.73;22.73;;;7.70;99.90;;;;;;4988586;28;20264;-77
2022/05/08 03:31:50;;;;;;;24.50;22.50;;;7.70;99.90;;;;;;4981903;28;20177;-78
2022/05/08 03:34:16;;;;;;;24.90;22.90;;;7.70;99.90;;;;;;4959980;29;20210;-78
2022/05/08 03:36:43;;;;;;;23.93;22.00;;;7.60;99.90;;;;;;4958479;28;20177;-76
2022/05/08 03:39:11;;;;;;;23.17;21.27;;;7.50;99.90;;;;;;4956757;28;20299;-77
2022/05/08 03:41:38;;;;;;;22.87;21.00;;;7.40;99.90;;;;;;4960361;28;20181;-79
2022/05/08 03:44:04;;;;;;;24.23;22.33;;;7.40;99.90;;;;;;4976567;28;20640;-78
2022/05/08 03:46:30;;;;;;;21.90;19.77;;;7.40;99.90;;;;;;4976882;28;20189;-77
2022/05/08 03:48:56;;;;;;;21.27;19.47;;;7.40;99.90;;;;;;4977753;28;20268;-77
2022/05/08 03:51:22;;;;;;;22.20;20.10;;;7.50;99.90;;;;;;4977728;28;20204;-78
2022/05/08 03:53:48;;;;;;;20.73;18.67;;;7.40;99.90;;;;;;4973803;28;20622;-77
2022/05/08 03:56:13;;;;;;;21.60;19.60;;;7.40;99.90;;;;;;4976280;28;20197;-78
2022/05/08 03:58:41;;;;;;;22.60;20.13;;;7.40;99.90;;;;;;4977286;28;20798;-78
2022/05/08 04:01:06;;;;;;;19.70;17.93;;;7.40;99.90;;;;;;4975334;28;20181;-78
2022/05/08 04:03:32;;;;;;;19.80;18.00;;;7.40;99.90;;;;;;4958135;28;20186;-77
2022/05/08 04:05:58;;;;;;;19.47;17.57;;;7.40;99.90;;;;;;4957489;28;20272;-76
2022/05/08 04:08:24;;;;;;;19.50;17.57;;;7.40;99.90;;;;;;4968742;28;20756;-76
2022/05/08 04:10:50;;;;;;;20.03;18.17;;;7.40;99.90;;;;;;4966042;28;20205;-78
2022/05/08 04:13:15;;;;;;;18.70;17.00;;;7.50;99.90;;;;;;4986175;28;20184;-78
2022/05/08 04:18:26;;;;;;;19.23;17.57;;;7.60;99.90;;;;;;4981580;28;20602;-79
2022/05/08 04:20:51;;;;;;;20.73;18.73;;;7.60;99.90;;;;;;4980494;28;20183;-79
2022/05/08 04:26:01;;;;;;;18.07;16.47;;;7.60;99.90;;;;;;4961699;29;20296;-78
2022/05/08 04:28:27;;;;;;;25.93;24.00;;;7.50;99.90;;;;;;4959321;28;20217;-78
2022/05/08 04:30:53;;;;;;;24.20;22.17;;;7.50;99.90;;;;;;4959783;29;20217;-77
2022/05/08 04:33:18;;;;;;;21.57;19.67;;;7.50;99.90;;;;;;4975407;28;20173;-77
2022/05/08 04:35:44;;;;;;;22.97;20.60;;;7.50;99.90;;;;;;4982432;28;20244;-78
2022/05/08 04:38:11;;;;;;;22.17;20.27;;;7.50;99.90;;;;;;4985484;28;20205;-78
2022/05/08 04:40:41;;;;;;;36.93;34.00;;;7.60;99.90;;;;;;4976094;28;20243;-78
2022/05/08 04:43:06;;;;;;;29.83;27.47;;;7.60;99.90;;;;;;4976007;28;20181;-78
2022/05/08 04:45:32;;;;;;;30.33;27.73;;;7.60;99.90;;;;;;4977183;28;20271;-78
2022/05/08 04:47:58;;;;;;;26.17;24.27;;;7.70;99.90;;;;;;4975595;28;20188;-78
2022/05/08 04:50:24;;;;;;;28.50;26.27;;;7.80;99.90;;;;;;4976733;28;20209;-77
2022/05/08 04:52:50;;;;;;;31.70;29.37;;;7.90;99.90;;;;;;4974981;28;20181;-78
2022/05/08 04:55:15;;;;;;;29.00;26.77;;;7.90;99.90;;;;;;4985801;28;20216;-77
2022/05/08 04:57:41;;;;;;;22.20;20.30;;;8.00;99.90;;;;;;4994952;28;20191;-76
2022/05/08 05:00:07;;;;;;;37.00;33.97;;;8.10;99.90;;;;;;4995864;28;20187;-77
2022/05/08 05:02:33;;;;;;;17.40;15.87;;;8.20;99.90;;;;;;4973428;28;20266;-79
2022/05/08 05:05:00;;;;;;;16.63;15.03;;;8.20;99.90;;;;;;4961693;28;20206;-78
2022/05/08 05:07:27;;;;;;;15.40;14.00;;;8.40;99.90;;;;;;4953668;28;20651;-78
2022/05/08 05:09:53;;;;;;;15.70;14.20;;;8.40;99.90;;;;;;4942606;28;20229;-78
2022/05/08 05:12:19;;;;;;;17.13;15.43;;;8.40;99.90;;;;;;4950705;28;20633;-78
2022/05/08 05:14:44;;;;;;;16.70;15.20;;;8.60;99.90;;;;;;4976091;28;20221;-78
2022/05/08 05:17:10;;;;;;;16.37;14.87;;;8.60;99.90;;;;;;4980048;28;20187;-77
2022/05/08 05:19:36;;;;;;;20.57;18.93;;;8.70;99.90;;;;;;4988988;28;20188;-79
2022/05/08 05:22:02;;;;;;;20.00;18.47;;;8.80;99.90;;;;;;4970391;28;20239;-78
2022/05/08 05:24:31;;;;;;;23.13;21.07;;;9.00;99.90;;;;;;4957303;28;20225;-79
2022/05/08 05:26:57;;;;;;;27.27;25.07;;;9.00;99.90;;;;;;4957054;28;20185;-79
2022/05/08 05:29:23;;;;;;;30.50;28.37;;;9.10;99.90;;;;;;4955872;29;20265;-78
2022/05/08 05:31:48;;;;;;;35.80;33.20;;;9.10;99.90;;;;;;4962700;28;20178;-77
2022/05/08 05:34:14;;;;;;;28.00;25.90;;;9.20;99.90;;;;;;4979331;28;20213;-77
2022/05/08 05:36:40;;;;;;;21.13;19.43;;;9.30;99.90;;;;;;4962879;28;20205;-78
2022/05/08 05:39:06;;;;;;;19.50;17.60;;;9.40;99.90;;;;;;4981658;28;20249;-77
2022/05/08 05:41:33;;;;;;;17.97;16.40;;;9.60;99.90;;;;;;4986771;28;20188;-75
2022/05/08 05:43:59;;;;;;;18.17;16.47;;;9.80;99.90;;;;;;4958425;28;20213;-77
2022/05/08 05:49:09;;;;;;;24.70;22.87;;;10.10;99.90;;;;;;4957961;29;20181;-78
2022/05/08 05:51:35;;;;;;;17.43;15.93;;;10.20;99.90;;;;;;4955906;28;20209;-78
2022/05/08 05:54:01;;;;;;;19.00;14.57;;;10.30;99.90;;;;;;4975395;28;20189;-78
2022/05/08 05:56:27;;;;;;;16.80;15.30;;;10.30;99.90;;;;;;4986855;28;20591;-77
2022/05/08 05:58:53;;;;;;;16.83;15.43;;;10.60;99.90;;;;;;4992429;28;20205;-77
2022/05/08 06:01:18;;;;;;;15.43;13.93;;;10.80;99.90;;;;;;4984642;28;20324;-78
2022/05/08 06:03:44;;;;;;;15.47;14.07;;;11.00;99.90;;;;;;4986498;28;20244;-77
2022/05/08 06:06:10;;;;;;;15.80;14.40;;;11.10;99.90;;;;;;4990241;28;20214;-79
2022/05/08 06:08:36;;;;;;;18.50;16.97;;;11.20;99.90;;;;;;4979949;28;20216;-78
2022/05/08 06:11:01;;;;;;;16.07;14.57;;;11.30;99.90;;;;;;4980083;28;20276;-78
2022/05/08 06:13:27;;;;;;;18.33;16.80;;;11.40;99.90;;;;;;4972184;28;20201;-77
2022/05/08 06:15:53;;;;;;;32.07;29.83;;;11.50;99.90;;;;;;4968006;28;20219;-78
2022/05/08 06:18:19;;;;;;;34.70;32.07;;;11.60;99.90;;;;;;4962527;29;20567;-79
2022/05/08 06:20:45;;;;;;;41.07;38.47;;;11.70;99.90;;;;;;4955601;28;20193;-79
2022/05/08 06:23:11;;;;;;;35.87;33.47;;;11.90;99.90;;;;;;4976969;28;20189;-77
2022/05/08 06:25:41;;;;;;;20.80;19.03;;;12.00;99.90;;;;;;4985628;28;20656;-78
2022/05/08 06:28:08;;;;;;;16.87;15.40;;;12.10;99.90;;;;;;4974613;28;20247;-78
2022/05/08 06:30:34;;;;;;;15.30;13.83;;;12.30;99.90;;;;;;4978166;28;20205;-77
2022/05/08 06:33:00;;;;;;;15.07;13.63;;;12.30;99.90;;;;;;4968317;28;20207;-78
2022/05/08 06:35:25;;;;;;;16.67;14.97;;;12.50;99.90;;;;;;4956374;28;20205;-78
2022/05/08 06:37:51;;;;;;;15.40;14.03;;;12.60;99.90;;;;;;4956476;28;20193;-78
2022/05/08 06:40:17;;;;;;;15.40;13.93;;;12.80;99.90;;;;;;4955149;28;20220;-73
2022/05/08 06:42:43;;;;;;;16.37;13.57;;;12.90;99.90;;;;;;4961199;28;20192;-69
2022/05/08 06:45:10;;;;;;;15.40;14.03;;;12.90;99.90;;;;;;4972274;28;20204;-70
2022/05/08 06:47:36;;;;;;;14.97;13.67;;;13.10;99.90;;;;;;4971031;28;20184;-70
2022/05/08 06:50:01;;;;;;;14.93;13.43;;;13.40;99.90;;;;;;4972353;28;20280;-70
2022/05/08 06:52:27;;;;;;;16.37;14.97;;;13.70;99.90;;;;;;4967114;28;20181;-70
2022/05/08 06:54:53;;;;;;;19.23;17.80;;;13.90;99.90;;;;;;4953814;28;20206;-72
2022/05/08 06:57:19;;;;;;;22.03;20.43;;;14.00;99.90;;;;;;4952951;28;20182;-71
2022/05/08 07:02:29;;;;;;;14.83;13.47;;;14.50;99.90;;;;;;4956451;28;20184;-70
2022/05/08 07:04:54;;;;;;;13.77;12.57;;;14.80;99.90;;;;;;4963094;28;20205;-72
2022/05/08 07:07:20;;;;;;;14.80;13.57;;;15.00;99.90;;;;;;4972102;28;20192;-72
2022/05/08 07:09:46;;;;;;;23.00;18.20;;;15.20;99.90;;;;;;4962052;28;20213;-70
2022/05/08 07:12:12;;;;;;;15.43;13.93;;;15.50;99.90;;;;;;4970269;28;20189;-71
2022/05/08 07:14:40;;;;;;;14.20;13.00;;;15.70;99.90;;;;;;4961113;28;20215;-71
2022/05/08 07:17:06;;;;;;;14.77;13.30;;;15.80;99.90;;;;;;4951610;28;20182;-71
2022/05/08 07:19:32;;;;;;;14.70;13.50;;;15.70;99.90;;;;;;4951414;28;20233;-71
2022/05/08 07:21:58;;;;;;;15.20;13.70;;;15.80;99.90;;;;;;4952591;28;20181;-71
2022/05/08 07:24:23;;;;;;;14.10;12.90;;;16.00;99.90;;;;;;4952712;28;20737;-71
2022/05/08 07:26:49;;;;;;;15.03;13.73;;;16.10;99.90;;;;;;4952274;28;20185;-70
2022/05/08 07:29:15;;;;;;;15.63;14.07;;;16.40;99.90;;;;;;4952545;28;20569;-71
2022/05/08 07:31:42;;;;;;;14.03;12.83;;;16.80;99.90;;;;;;4970983;28;20213;-71
2022/05/08 07:36:53;;;;;;;19.00;17.60;;;17.00;99.90;;;;;;4961009;28;20711;-73
2022/05/08 07:39:18;;;;;;;20.87;18.87;;;17.00;99.90;;;;;;4951247;28;20182;-71
2022/05/08 07:41:44;;;;;;;19.83;18.23;;;17.00;99.90;;;;;;4963973;28;20602;-72
2022/05/08 07:44:10;;;;;;;22.77;21.17;;;16.90;99.90;;;;;;4953505;28;20236;-70
2022/05/08 07:46:36;;;;;;;22.73;20.57;;;17.00;99.90;;;;;;4953724;28;20278;-72
2022/05/08 07:49:02;;;;;;;24.47;22.57;;;16.90;99.90;;;;;;4955761;28;20545;-72
2022/05/08 07:51:28;;;;;;;25.23;23.33;;;16.90;99.90;;;;;;4969886;28;20205;-71
2022/05/08 07:53:54;;;;;;;22.97;21.33;;;17.00;99.90;;;;;;4971961;28;20180;-73
2022/05/08 07:56:20;;;;;;;25.43;23.67;;;17.00;99.90;;;;;;4972226;28;20184;-77
2022/05/08 07:58:47;;;;;;;26.53;24.63;;;17.20;99.90;;;;;;4972094;28;20227;-71
2022/05/08 08:01:13;;;;;;;28.27;26.20;;;17.40;99.90;;;;;;4953856;28;20189;-72
2022/05/08 08:03:41;;;;;;;31.13;28.97;;;17.50;99.90;;;;;;4953283;28;20246;-78
2022/05/08 08:06:06;;;;;;;29.17;27.17;;;17.50;99.90;;;;;;4963913;28;20202;-78
2022/05/08 08:08:32;;;;;;;29.03;26.93;;;17.60;99.90;;;;;;4961336;29;20182;-78
2022/05/08 08:11:01;;;;;;;19.93;18.40;;;17.80;99.90;;;;;;4974358;28;20215;-78
2022/05/08 08:13:29;;;;;;;17.97;16.57;;;18.00;99.90;;;;;;4977461;28;20181;-79
2022/05/08 08:15:55;;;;;;;17.00;15.60;;;18.10;99.90;;;;;;4979039;28;20267;-77
2022/05/08 08:18:21;;;;;;;17.40;15.90;;;18.30;99.90;;;;;;4980230;28;20203;-79
2022/05/08 08:20:47;;;;;;;16.40;15.10;;;18.30;99.90;;;;;;4969604;28;20284;-79
2022/05/08 08:23:12;;;;;;;18.63;17.03;;;18.10;99.90;;;;;;4960798;28;20186;-78
2022/05/08 08:25:39;;;;;;;19.43;17.93;;;18.20;99.90;;;;;;4966157;28;20233;-78
2022/05/08 08:28:05;;;;;;;18.87;17.37;;;18.30;99.90;;;;;;4968616;28;20212;-78
2022/05/08 08:30:31;;;;;;;21.43;19.63;;;18.30;99.90;;;;;;4990709;28;20216;-79
2022/05/08 08:32:57;;;;;;;19.63;18.03;;;18.40;99.90;;;;;;4992602;28;20192;-78
2022/05/08 08:35:23;;;;;;;15.97;14.67;;;18.60;99.90;;;;;;4991023;28;20290;-77
2022/05/08 08:37:49;;;;;;;16.07;14.70;;;18.80;99.90;;;;;;4987779;28;20676;-79
2022/05/08 08:40:15;;;;;;;18.63;17.23;;;18.80;99.90;;;;;;4959543;28;20186;-80
2022/05/08 08:42:42;;;;;;;20.00;18.30;;;18.70;99.90;;;;;;4958974;28;20186;-78
2022/05/08 08:48:04;;;;;;;16.90;15.20;;;18.80;99.90;;;;;;4961586;28;20190;-78
2022/05/08 08:50:32;;;;;;;16.37;14.37;;;19.10;99.90;;;;;;4993279;28;20232;-78
2022/05/08 08:52:59;;;;;;;20.30;18.53;;;19.30;99.90;;;;;;4992954;28;20180;-79
2022/05/08 08:55:26;;;;;;;21.13;19.53;;;19.50;99.90;;;;;;4978549;28;20213;-79
2022/05/08 08:57:52;;;;;;;21.43;19.70;;;19.60;99.90;;;;;;4976366;28;20240;-78
2022/05/08 09:00:19;;;;;;;20.43;18.80;;;19.60;99.90;;;;;;4960503;28;20177;-79
2022/05/08 09:02:50;;;;;;;20.17;18.67;;;19.50;99.90;;;;;;4966764;28;20185;-78
2022/05/08 09:05:16;;;;;;;20.30;18.50;;;19.80;99.90;;;;;;4968934;28;20532;-77
2022/05/08 09:07:46;;;;;;;18.53;16.93;;;19.80;99.90;;;;;;4969876;29;20186;-78
2022/05/08 09:10:20;;;;;;;18.33;16.93;;;20.10;99.90;;;;;;4991619;28;20219;-79
2022/05/08 09:12:52;;;;;;;16.50;15.30;;;19.90;99.90;;;;;;4990753;28;20358;-78
2022/05/08 09:15:28;;;;;;;18.93;17.43;;;19.90;99.90;;;;;;4995479;23;20260;-77
2022/05/08 09:17:59;;;;;;;18.60;17.10;;;19.90;99.90;;;;;;4955014;28;20263;-77
2022/05/08 09:20:29;;;;;;;19.20;17.60;;;20.00;99.90;;;;;;4955133;28;20190;-76
2022/05/08 09:23:10;;;;;;;18.60;17.10;;;20.30;99.90;;;;;;4957384;29;20186;-78
2022/05/08 09:26:00;;;;;;;17.03;15.73;;;20.30;99.90;;;;;;4948976;28;20233;-78
2022/05/08 09:28:42;;;;;;;16.77;15.47;;;20.40;99.90;;;;;;4926801;29;20197;-77
2022/05/08 09:31:15;;;;;;;17.00;15.53;;;20.60;99.90;;;;;;4934695;29;20221;-76
2022/05/08 09:33:51;;;;;;;23.07;19.50;;;20.70;99.90;;;;;;4936353;28;20186;-76
2022/05/08 09:36:24;;;;;;;20.95;18.85;;;21.00;99.90;;;;;;4935466;29;20257;-75
2022/05/08 09:38:50;;;;;;;23.48;21.48;;;21.20;99.90;;;;;;4934752;29;20283;-76
2022/05/08 09:41:27;;;;;;;23.25;21.75;;;21.20;99.90;;;;;;4945570;29;20190;-77
2022/05/08 09:43:54;;;;;;;29.67;27.17;;;21.30;99.90;;;;;;4949252;29;20181;-76
2022/05/08 09:46:35;;;;;;;24.98;23.38;;;21.10;99.90;;;;;;4949514;29;20210;-77
2022/05/08 09:49:01;;;;;;;26.77;25.00;;;21.00;99.90;;;;;;4948496;29;20220;-78
2022/05/08 09:51:29;;;;;;;28.33;26.50;;;21.10;99.90;;;;;;4950462;28;20214;-78
2022/05/08 09:53:56;;;;;;;18.25;16.75;;;21.30;99.90;;;;;;4950585;29;20191;-78
2022/05/08 09:56:22;;;;;;;15.93;14.60;;;21.70;99.90;;;;;;4950273;29;20261;-77
2022/05/08 09:58:48;;;;;;;16.60;14.40;;;21.80;99.90;;;;;;4954735;29;20201;-77
2022/05/08 10:01:16;;;;;;;13.25;12.15;;;21.90;99.90;;;;;;4950085;29;20186;-77
2022/05/08 10:03:43;;;;;;;12.02;10.95;;;22.00;99.90;;;;;;4949305;29;20557;-76
2022/05/08 10:06:10;;;;;;;13.00;11.85;;;22.20;99.90;;;;;;4950434;29;20229;-78
2022/05/08 10:08:37;;;;;;;11.75;10.75;;;22.10;99.90;;;;;;4947681;29;20197;-77
2022/05/08 10:14:08;;;;;;;10.07;9.07;;;22.40;99.90;;;;;;4937343;29;20190;-77
2022/05/08 10:16:46;;;;;;;10.32;9.32;;;22.60;99.90;;;;;;4937097;29;20273;-77
2022/05/08 10:19:18;;;;;;;9.95;9.23;;;23.00;99.90;;;;;;4936762;29;20194;-75
2022/05/08 10:22:13;;;;;;;9.27;8.48;;;23.10;99.90;;;;;;4935581;29;20608;-75
2022/05/08 10:24:52;;;;;;;10.15;9.00;;;22.70;99.90;;;;;;4933755;29;20618;-77
2022/05/08 10:27:22;;;;;;;9.68;8.85;;;22.60;99.90;;;;;;4934203;29;20555;-77
2022/05/08 10:29:50;;;;;;;10.13;9.38;;;22.60;99.90;;;;;;4934623;29;20190;-77
2022/05/08 10:32:30;;;;;;;9.30;8.60;;;22.20;99.90;;;;;;4934715;29;20190;-75
2022/05/08 10:35:14;;;;;;;9.30;8.40;;;22.20;99.90;;;;;;4935043;29;20628;-77
2022/05/08 10:37:50;;;;;;;9.75;8.85;;;22.50;99.90;;;;;;4934253;29;20269;-77
2022/05/08 10:40:22;;;;;;;9.57;8.77;;;22.80;99.70;;;;;;4937646;29;20280;-77
2022/05/08 10:42:48;;;;;;;10.57;9.77;;;22.90;99.10;;;;;;4934409;29;20206;-77
2022/05/08 10:45:33;;;;;;;10.75;9.88;;;22.50;98.80;;;;;;4936676;29;20213;-77
2022/05/08 10:48:14;;;;;;;8.95;8.27;;;22.70;98.20;;;;;;4933836;29;20551;-77
2022/05/08 10:50:45;;;;;;;11.45;7.75;;;22.30;96.70;;;;;;4934496;29;20214;-77
2022/05/08 10:53:26;;;;;;;7.43;6.93;;;22.20;96.00;;;;;;4934390;29;20245;-77
2022/05/08 10:55:58;;;;;;;8.45;7.68;;;22.00;95.70;;;;;;4939548;29;20285;-77
2022/05/08 10:58:24;;;;;;;9.25;8.55;;;21.90;96.10;;;;;;4943031;29;20680;-77
2022/05/08 11:00:55;;;;;;;9.03;8.47;;;21.70;95.80;;;;;;4944817;29;20182;-76
2022/05/08 11:03:22;;;;;;;8.77;8.20;;;21.70;95.80;;;;;;4946078;29;20182;-78
2022/05/08 11:05:48;;;;;;;9.63;8.93;;;21.80;95.40;;;;;;4945081;29;20210;-77
2022/05/08 11:08:24;;;;;;;8.02;7.53;;;22.10;95.20;;;;;;4943116;29;20198;-77
2022/05/08 11:10:59;;;;;;;6.78;6.28;;;22.40;94.50;;;;;;4938494;29;20308;-77
2022/05/08 11:13:26;;;;;;;7.20;6.60;;;22.50;93.40;;;;;;4946029;29;20188;-76
2022/05/08 11:15:52;;;;;;;6.57;5.97;;;22.30;93.50;;;;;;4944137;29;20220;-78
2022/05/08 11:18:24;;;;;;;7.53;6.82;;;22.20;93.00;;;;;;4945274;29;20190;-77
2022/05/08 11:21:00;;;;;;;8.85;7.22;;;22.10;93.80;;;;;;4933290;29;20182;-75
2022/05/08 11:23:34;;;;;;;7.15;6.75;;;22.70;94.40;;;;;;4933946;29;20240;-77
2022/05/08 11:26:09;;;;;;;11.65;10.80;;;23.00;92.80;;;;;;4940350;29;20206;-76
2022/05/08 11:28:36;;;;;;;11.45;10.75;;;23.00;92.00;;;;;;4928214;29;20304;-77
2022/05/08 11:31:16;;;;;;;11.80;11.10;;;23.10;90.60;;;;;;4926661;29;20211;-76
2022/05/08 11:36:32;;;;;;;6.85;6.40;;;23.50;87.70;;;;;;4921775;29;20655;-77
2022/05/08 11:39:00;;;;;;;5.38;5.07;;;23.90;87.20;;;;;;4942460;29;20226;-76
2022/05/08 11:41:33;;;;;;;6.60;5.97;;;24.30;85.70;;;;;;4940417;29;20193;-76
2022/05/08 11:44:03;;;;;;;6.97;6.57;;;24.00;86.00;;;;;;4945062;29;20271;-77
2022/05/08 11:46:32;;;;;;;8.05;7.55;;;24.60;82.40;;;;;;4941090;29;20647;-77
2022/05/08 11:48:58;;;;;;;9.45;8.85;;;24.10;79.50;;;;;;4935328;29;20545;-77
2022/05/08 11:51:24;;;;;;;9.35;8.55;;;23.80;79.60;;;;;;4942474;29;20218;-80
2022/05/08 11:53:51;;;;;;;9.50;8.98;;;24.10;80.70;;;;;;4945010;29;20178;-77
2022/05/08 11:56:29;;;;;;;11.70;10.65;;;24.40;78.30;;;;;;4944513;29;20229;-77
2022/05/08 11:58:57;;;;;;;9.38;8.70;;;24.30;79.40;;;;;;4942652;28;20265;-77
2022/05/08 12:01:28;;;;;;;9.85;9.18;;;24.70;77.50;;;;;;4938586;29;20202;-76
2022/05/08 12:03:55;;;;;;;10.07;9.38;;;25.30;77.70;;;;;;4954690;29;20186;-78
2022/05/08 12:06:21;;;;;;;8.27;7.75;;;25.40;77.90;;;;;;4963319;28;20210;-76
2022/05/08 12:08:48;;;;;;;7.22;6.72;;;25.70;75.30;;;;;;4942388;28;20636;-77
2022/05/08 12:11:31;;;;;;;6.10;5.70;;;26.30;74.50;;;;;;4941519;29;20242;-77
2022/05/08 12:14:00;;;;;;;6.30;5.80;;;26.70;71.40;;;;;;4946198;29;20182;-77
2022/05/08 12:16:26;;;;;;;6.40;6.00;;;26.90;70.90;;;;;;4945434;29;20219;-77
2022/05/08 12:19:12;;;;;;;7.53;6.95;;;26.60;68.90;;;;;;4938535;29;20191;-77
2022/05/08 12:21:41;;;;;;;6.13;5.43;;;26.00;69.70;;;;;;4950432;29;20232;-75
2022/05/08 12:24:20;;;;;;;7.40;5.60;;;25.80;70.80;;;;;;4936912;29;20193;-76
2022/05/08 12:26:46;;;;;;;6.95;6.40;;;26.20;71.70;;;;;;4934551;29;20194;-75
2022/05/08 12:29:22;;;;;;;6.22;5.82;;;26.90;70.80;;;;;;4936864;29;20194;-77
2022/05/08 12:31:51;;;;;;;6.72;6.32;;;26.60;67.10;;;;;;4936442;29;20225;-77
2022/05/08 12:34:19;;;;;;;6.55;5.97;;;26.50;66.50;;;;;;4935225;29;20194;-76
2022/05/08 12:36:45;;;;;;;6.38;5.88;;;26.10;65.90;;;;;;4935362;29;20274;-77
2022/05/08 12:39:11;;;;;;;5.88;5.38;;;26.10;67.00;;;;;;4937668;29;20265;-76
2022/05/08 12:41:37;;;;;;;6.20;5.72;;;25.70;66.70;;;;;;4932311;29;20608;-75
2022/05/08 12:44:04;;;;;;;7.72;5.65;;;25.80;67.50;;;;;;4941531;28;20187;-76
2022/05/08 12:46:30;;;;;;;5.28;4.88;;;26.30;67.80;;;;;;4938127;28;20198;-81
2022/05/08 12:49:02;;;;;;;5.53;5.20;;;26.40;66.10;;;;;;4941057;29;20187;-80
2022/05/08 12:51:32;;;;;;;6.60;5.82;;;26.00;67.80;;;;;;4937570;29;20587;-81
2022/05/08 12:53:58;;;;;;;7.82;6.72;;;26.10;65.70;;;;;;4937122;29;20254;-81
2022/05/08 12:56:25;;;;;;;6.68;6.28;;;26.80;63.30;;;;;;4937025;29;20194;-80
2022/05/08 13:01:37;;;;;;;5.60;5.30;;;26.90;62.90;;;;;;4939818;29;20183;-76
2022/05/08 13:04:03;;;;;;;6.28;5.80;;;26.20;63.10;;;;;;4935331;29;20252;-77
2022/05/08 13:06:29;;;;;;;6.13;5.63;;;26.00;65.30;;;;;;4935835;29;20218;-77
2022/05/08 13:08:55;;;;;;;5.82;5.38;;;25.50;68.20;;;;;;4934716;29;20192;-76
2022/05/08 13:11:21;;;;;;;6.20;5.80;;;25.00;66.10;;;;;;4917878;29;20591;-77
2022/05/08 13:13:47;;;;;;;7.10;6.57;;;24.60;67.80;;;;;;4917095;29;20213;-76
2022/05/08 13:16:14;;;;;;;7.93;7.32;;;23.80;68.20;;;;;;4934919;29;20230;-77
2022/05/08 13:18:44;;;;;;;10.05;9.32;;;23.30;69.20;;;;;;4934639;29;20186;-77
2022/05/08 13:21:10;;;;;;;10.73;10.10;;;23.10;71.80;;;;;;4936146;29;20297;-76
2022/05/08 13:23:36;;;;;;;10.45;9.85;;;23.40;71.90;;;;;;4951845;28;20267;-79
2022/05/08 13:26:02;;;;;;;10.20;9.60;;;23.60;70.70;;;;;;4958081;29;20219;-76
2022/05/08 13:28:31;;;;;;;10.70;10.00;;;23.50;70.80;;;;;;4949968;29;20190;-77
2022/05/08 13:30:57;;;;;;;8.75;8.25;;;24.00;70.80;;;;;;4950256;29;20218;-78
2022/05/08 13:33:24;;;;;;;9.23;7.32;;;24.70;68.50;;;;;;4950191;29;20198;-77
2022/05/08 13:35:54;;;;;;;8.48;7.88;;;24.80;67.40;;;;;;4941631;29;20295;-77
2022/05/08 13:38:21;;;;;;;7.25;6.75;;;24.60;67.60;;;;;;4942035;29;20202;-77
2022/05/08 13:40:48;;;;;;;6.38;5.97;;;25.20;67.20;;;;;;4936703;29;20341;-77
2022/05/08 13:43:15;;;;;;;5.60;5.25;;;26.20;66.30;;;;;;4930413;29;20193;-77
2022/05/08 13:45:42;;;;;;;5.50;5.20;;;26.20;64.30;;;;;;4936603;29;20204;-77
2022/05/08 13:48:08;;;;;;;5.28;4.97;;;26.10;63.80;;;;;;4934314;29;20384;-76
2022/05/08 13:50:35;;;;;;;5.63;5.22;;;25.90;64.60;;;;;;4941373;29;20301;-76
2022/05/08 13:53:03;;;;;;;5.80;5.40;;;25.20;66.80;;;;;;4949166;29;20197;-77
2022/05/08 13:55:28;;;;;;;6.75;6.25;;;24.30;66.10;;;;;;4934655;29;20217;-78
2022/05/08 13:57:54;;;;;;;8.02;7.38;;;24.00;67.90;;;;;;4935102;29;20182;-76
2022/05/08 14:00:21;;;;;;;8.98;8.48;;;23.70;67.80;;;;;;4936472;29;20213;-75
2022/05/08 14:02:48;;;;;;;8.80;8.20;;;23.60;69.10;;;;;;4942693;29;20190;-77
2022/05/08 14:05:14;;;;;;;10.25;9.57;;;23.50;69.60;;;;;;4941755;29;20213;-77
2022/05/08 14:07:40;;;;;;;9.40;8.80;;;23.50;68.80;;;;;;4935839;29;20804;-77
2022/05/08 14:10:08;;;;;;;10.55;9.90;;;23.50;69.60;;;;;;4935482;29;20686;-75
2022/05/08 14:12:35;;;;;;;9.50;8.90;;;23.30;70.30;;;;;;4934504;29;20194;-77
2022/05/08 14:15:01;;;;;;;9.82;9.23;;;23.50;70.80;;;;;;4933913;29;20222;-76
2022/05/08 14:17:27;;;;;;;9.80;9.10;;;23.90;69.80;;;;;;4934912;29;20258;-77
2022/05/08 14:19:53;;;;;;;9.38;8.68;;;24.00;69.00;;;;;;4935064;29;20182;-77
2022/05/08 14:22:19;;;;;;;8.68;8.07;;;23.80;67.70;;;;;;4934626;29;20186;-76
2022/05/08 14:24:45;;;;;;;8.40;7.82;;;23.90;68.50;;;;;;4934847;29;20343;-75
2022/05/08 14:27:11;;;;;;;9.80;9.20;;;23.80;68.30;;;;;;4934378;29;20190;-74
2022/05/08 14:29:37;;;;;;;9.60;9.07;;;23.70;68.90;;;;;;4943171;29;20236;-77
2022/05/08 14:37:32;;;;;;;9.60;9.10;;;23.00;69.60;;;;;;4941582;29;20194;-77
2022/05/08 14:39:58;;;;;;;9.73;9.02;;;22.80;71.30;;;;;;4946352;29;20178;-76
2022/05/08 14:42:24;;;;;;;9.80;9.30;;;22.70;71.20;;;;;;4944214;29;20189;-76
2022/05/08 14:44:50;;;;;;;10.20;9.57;;;22.80;72.20;;;;;;4942036;29;20651;-77
2022/05/08 14:47:18;;;;;;;10.02;9.13;;;23.00;72.80;;;;;;4942056;29;20212;-76
2022/05/08 14:49:44;;;;;;;9.20;8.70;;;23.00;72.50;;;;;;4941625;29;20637;-76
2022/05/08 14:52:12;;;;;;;10.02;9.45;;;22.90;72.10;;;;;;4942430;29;20266;-77
2022/05/08 14:54:38;;;;;;;9.85;9.15;;;23.00;72.10;;;;;;4943461;29;20195;-75
2022/05/08 14:57:04;;;;;;;9.35;8.73;;;23.20;71.40;;;;;;4940708;29;20242;-76
2022/05/08 14:59:30;;;;;;;9.05;8.50;;;23.30;71.70;;;;;;4934801;29;20185;-76
2022/05/08 15:01:56;;;;;;;9.75;9.15;;;23.40;70.50;;;;;;4932942;29;20277;-77
2022/05/08 15:04:22;;;;;;;10.07;9.48;;;23.60;69.40;;;;;;4940002;29;20186;-77
2022/05/08 15:06:48;;;;;;;9.80;9.02;;;23.60;69.80;;;;;;4936079;29;20243;-77
2022/05/08 15:09:13;;;;;;;9.68;9.07;;;23.70;69.30;;;;;;4934620;29;20192;-77
2022/05/08 15:11:40;;;;;;;10.40;9.77;;;23.80;69.00;;;;;;4934041;29;20233;-76
2022/05/08 15:14:06;;;;;;;9.85;9.18;;;24.00;69.00;;;;;;4934803;29;20182;-77
2022/05/08 15:16:32;;;;;;;8.73;7.80;;;24.10;67.00;;;;;;4974403;23;20233;-77
2022/05/08 15:18:58;;;;;;;10.27;9.43;;;23.80;67.80;;;;;;4957023;29;20178;-77
2022/05/08 15:21:23;;;;;;;10.02;9.43;;;23.90;68.20;;;;;;4958978;29;20193;-77
2022/05/08 15:23:49;;;;;;;9.55;9.02;;;24.10;68.30;;;;;;4958909;28;20634;-77
2022/05/08 15:26:17;;;;;;;7.93;7.32;;;24.30;69.70;;;;;;4942945;29;20217;-77
2022/05/08 15:28:43;;;;;;;7.18;6.80;;;24.60;67.10;;;;;;4938274;29;20186;-77
2022/05/08 15:31:10;;;;;;;7.57;7.13;;;24.40;67.00;;;;;;4938609;29;20213;-77
2022/05/08 15:33:36;;;;;;;7.43;6.90;;;24.30;66.50;;;;;;4940653;29;20668;-77
2022/05/08 15:36:02;;;;;;;8.70;8.10;;;24.10;66.90;;;;;;4947449;28;20647;-78
2022/05/08 15:38:30;;;;;;;9.82;9.25;;;23.80;66.80;;;;;;4937843;29;20568;-77
2022/05/08 15:41:01;;;;;;;9.65;8.95;;;23.70;68.60;;;;;;4937790;29;20206;-76
2022/05/08 15:43:30;;;;;;;10.82;9.68;;;23.70;68.50;;;;;;4938786;29;20192;-77
2022/05/08 15:45:56;;;;;;;8.60;8.10;;;23.60;69.30;;;;;;4943287;29;20231;-77
2022/05/08 15:48:22;;;;;;;8.82;8.23;;;23.60;69.50;;;;;;4943910;29;20186;-78
2022/05/08 15:50:48;;;;;;;8.75;8.23;;;23.60;69.10;;;;;;4938669;29;20213;-77
2022/05/08 15:53:14;;;;;;;9.52;8.70;;;23.60;68.90;;;;;;4937069;29;20182;-77
2022/05/08 15:55:41;;;;;;;9.05;8.35;;;23.40;69.00;;;;;;4938141;29;20667;-77
2022/05/08 15:58:07;;;;;;;9.88;9.27;;;23.30;69.40;;;;;;4940947;29;20194;-77
2022/05/08 16:00:33;;;;;;;8.45;7.85;;;23.30;69.00;;;;;;4939635;29;20191;-77
2022/05/08 16:02:59;;;;;;;9.82;9.30;;;23.10;69.20;;;;;;4938684;29;20305;-77
2022/05/08 16:05:25;;;;;;;11.70;9.32;;;23.00;69.40;;;;;;4938387;29;20241;-77
2022/05/08 16:07:50;;;;;;;9.45;8.77;;;22.90;69.50;;;;;;4939439;29;20183;-77
2022/05/08 16:10:16;;;;;;;9.05;8.48;;;23.10;70.60;;;;;;4939374;29;20210;-77
2022/05/08 16:23:40;;;;;;;7.38;6.97;;;23.00;74.10;;;;;;4937307;29;20250;-77